Time;durP1;ratioP1;P1;durP2;ratioP2;P2;SDS_P1;SDS_P2;PMS_P1;PMS_P2;Temp;Humidity;BMP_temperature;BMP_pressure;BME280_temperature;BME280_humidity;BME280_pressure;Samples;Min_cycle;Max_cycle;Signal;HPM_P1;HPM_P2
2023/09/08 00:01:00;;;;;;;13.53;12.43;;;15.60;99.90;;;;;;4993943;28;20707;-78
2023/09/08 00:03:27;;;;;;;13.50;12.40;;;15.50;99.90;;;;;;4989216;28;20256;-79
2023/09/08 00:05:53;;;;;;;13.93;12.83;;;15.50;99.90;;;;;;4994168;28;20205;-79
2023/09/08 00:08:20;;;;;;;13.97;12.80;;;15.40;99.90;;;;;;4988029;28;20193;-78
2023/09/08 00:10:47;;;;;;;13.60;12.50;;;15.40;99.90;;;;;;4989678;28;20199;-79
2023/09/08 00:13:14;;;;;;;13.90;12.90;;;15.40;99.90;;;;;;4980088;28;20223;-78
2023/09/08 00:15:42;;;;;;;13.50;12.50;;;15.40;99.90;;;;;;4990270;28;20617;-79
2023/09/08 00:18:09;;;;;;;13.50;12.37;;;15.40;99.90;;;;;;4991693;28;20204;-79
2023/09/08 00:20:36;;;;;;;13.87;12.77;;;15.40;99.90;;;;;;4984571;28;20592;-79
2023/09/08 00:23:02;;;;;;;12.87;11.87;;;15.30;99.90;;;;;;4984158;28;20265;-79
2023/09/08 00:25:29;;;;;;;12.90;11.80;;;15.40;99.90;;;;;;4993568;28;20201;-78
2023/09/08 00:27:56;;;;;;;13.10;12.00;;;15.30;99.90;;;;;;4989238;28;20200;-79
2023/09/08 00:30:23;;;;;;;13.73;12.57;;;15.30;99.90;;;;;;4987406;28;20196;-79
2023/09/08 00:32:51;;;;;;;14.30;13.10;;;15.30;99.90;;;;;;4988623;28;20230;-79
2023/09/08 00:35:18;;;;;;;13.53;12.43;;;15.20;99.90;;;;;;4992306;28;20215;-79
2023/09/08 00:37:45;;;;;;;13.17;12.17;;;15.20;99.90;;;;;;4993854;28;20219;-79
2023/09/08 00:40:12;;;;;;;13.47;12.47;;;15.10;99.90;;;;;;4993372;28;20228;-78
2023/09/08 00:42:38;;;;;;;12.83;11.90;;;15.10;99.90;;;;;;4989528;28;20220;-78
2023/09/08 00:45:06;;;;;;;13.47;12.37;;;15.10;99.90;;;;;;4991591;28;20817;-78
2023/09/08 00:47:34;;;;;;;13.77;12.67;;;15.00;99.90;;;;;;4988249;28;20205;-79
2023/09/08 00:50:03;;;;;;;13.53;12.43;;;15.00;99.90;;;;;;4991261;28;20193;-78
2023/09/08 00:52:32;;;;;;;14.33;13.13;;;15.00;99.90;;;;;;4985888;28;20211;-79
2023/09/08 00:54:59;;;;;;;13.93;12.77;;;15.00;99.90;;;;;;4988698;28;20228;-79
2023/09/08 00:57:26;;;;;;;13.03;12.03;;;15.00;99.90;;;;;;4990191;28;20202;-79
2023/09/08 00:59:54;;;;;;;13.60;12.50;;;14.90;99.90;;;;;;4990597;28;20251;-79
2023/09/08 01:02:22;;;;;;;13.77;12.67;;;14.90;99.90;;;;;;4988063;28;20220;-79
2023/09/08 01:04:49;;;;;;;13.37;12.27;;;14.90;99.90;;;;;;4990782;28;20255;-79
2023/09/08 01:07:18;;;;;;;13.90;12.73;;;14.90;99.90;;;;;;4985763;28;20259;-78
2023/09/08 01:09:48;;;;;;;14.77;13.43;;;14.90;99.90;;;;;;4989545;28;20209;-79
2023/09/08 01:12:15;;;;;;;13.67;12.57;;;14.80;99.90;;;;;;4987305;28;20209;-78
2023/09/08 01:14:42;;;;;;;13.33;12.20;;;14.80;99.90;;;;;;4989937;28;20705;-78
2023/09/08 01:17:09;;;;;;;13.60;12.50;;;14.80;99.90;;;;;;4991336;28;20220;-79
2023/09/08 01:19:37;;;;;;;13.80;12.70;;;14.80;99.90;;;;;;4986544;28;20269;-79
2023/09/08 01:22:36;;;;;;;13.90;12.63;;;14.80;99.90;;;;;;4991309;28;20219;-78
2023/09/08 01:25:24;;;;;;;13.70;12.60;;;14.70;99.90;;;;;;4991344;28;20224;-79
2023/09/08 01:27:53;;;;;;;14.23;13.07;;;14.70;99.90;;;;;;4994497;28;20219;-79
2023/09/08 01:30:21;;;;;;;14.50;13.23;;;14.60;99.90;;;;;;4985265;28;20764;-78
2023/09/08 01:32:49;;;;;;;13.43;12.33;;;14.70;99.90;;;;;;4993711;28;20209;-78
2023/09/08 01:35:16;;;;;;;13.47;12.37;;;14.60;99.90;;;;;;4979321;28;20231;-79
2023/09/08 01:37:45;;;;;;;13.33;12.20;;;14.60;99.90;;;;;;4980457;28;20208;-78
2023/09/08 01:40:12;;;;;;;14.20;13.03;;;14.60;99.90;;;;;;4977585;28;20244;-78
2023/09/08 01:42:41;;;;;;;14.40;13.30;;;14.60;99.90;;;;;;4988361;28;20214;-78
2023/09/08 01:45:09;;;;;;;14.10;13.00;;;14.50;99.90;;;;;;4992375;28;20223;-78
2023/09/08 01:47:36;;;;;;;14.73;13.43;;;14.50;99.90;;;;;;4985106;28;20670;-78
2023/09/08 01:50:03;;;;;;;13.50;12.60;;;14.50;99.90;;;;;;4986489;28;20572;-78
2023/09/08 01:52:30;;;;;;;14.83;13.53;;;14.50;99.90;;;;;;4993940;28;20204;-78
2023/09/08 01:54:56;;;;;;;14.50;13.20;;;14.50;99.90;;;;;;4985207;28;20694;-78
2023/09/08 01:57:23;;;;;;;14.70;13.30;;;14.40;99.90;;;;;;4987191;28;20208;-78
2023/09/08 01:59:52;;;;;;;14.50;13.40;;;14.40;99.90;;;;;;4988291;28;20200;-78
2023/09/08 02:02:18;;;;;;;14.87;13.70;;;14.40;99.90;;;;;;4986161;28;20235;-78
2023/09/08 02:04:45;;;;;;;14.73;13.50;;;14.40;99.90;;;;;;4983088;28;20269;-78
2023/09/08 02:07:12;;;;;;;15.37;13.97;;;14.40;99.90;;;;;;4985720;28;20218;-78
2023/09/08 02:09:39;;;;;;;14.83;13.63;;;14.40;99.90;;;;;;4982435;28;20210;-78
2023/09/08 02:12:06;;;;;;;15.23;13.93;;;14.40;99.90;;;;;;4990054;28;20728;-78
2023/09/08 02:14:33;;;;;;;16.13;14.90;;;14.40;99.90;;;;;;4985641;28;20600;-78
2023/09/08 02:17:02;;;;;;;14.60;13.40;;;14.30;99.90;;;;;;4989100;28;20208;-79
2023/09/08 02:19:28;;;;;;;15.27;13.70;;;14.40;99.90;;;;;;4985367;28;20216;-78
2023/09/08 02:21:55;;;;;;;14.47;13.37;;;14.40;99.90;;;;;;4985064;28;20257;-78
2023/09/08 02:24:22;;;;;;;14.37;13.27;;;14.30;99.90;;;;;;4985164;28;20248;-78
2023/09/08 02:26:49;;;;;;;14.97;13.67;;;14.30;99.90;;;;;;4985363;28;20216;-78
2023/09/08 02:29:16;;;;;;;14.60;13.40;;;14.30;99.90;;;;;;4992812;28;20232;-78
2023/09/08 02:31:45;;;;;;;14.47;13.27;;;14.20;99.90;;;;;;4984592;28;20245;-78
2023/09/08 02:34:14;;;;;;;14.17;13.00;;;14.20;99.90;;;;;;4985009;28;20299;-78
2023/09/08 02:36:41;;;;;;;13.63;12.43;;;14.20;99.90;;;;;;4989119;28;20215;-78
2023/09/08 02:39:08;;;;;;;15.13;13.73;;;14.10;99.90;;;;;;4981520;28;20197;-77
2023/09/08 02:41:35;;;;;;;14.50;13.20;;;14.10;99.90;;;;;;4993522;28;20642;-80
2023/09/08 02:44:02;;;;;;;14.37;13.07;;;14.10;99.90;;;;;;4994121;28;20217;-77
2023/09/08 02:46:29;;;;;;;14.73;13.53;;;14.10;99.90;;;;;;4988431;28;20234;-77
2023/09/08 02:48:56;;;;;;;16.07;14.67;;;14.10;99.90;;;;;;4984793;28;20205;-78
2023/09/08 02:51:25;;;;;;;14.93;13.73;;;14.10;99.90;;;;;;4983537;28;20213;-80
2023/09/08 02:53:52;;;;;;;15.27;13.90;;;14.00;99.90;;;;;;4988026;28;20294;-79
2023/09/08 02:56:18;;;;;;;14.90;13.70;;;13.90;99.90;;;;;;4990652;28;20204;-78
2023/09/08 02:58:46;;;;;;;16.00;14.77;;;13.90;99.90;;;;;;4991933;28;20292;-78
2023/09/08 03:01:14;;;;;;;15.17;13.97;;;13.80;99.90;;;;;;4996637;28;20782;-77
2023/09/08 03:03:42;;;;;;;15.73;14.53;;;13.80;99.90;;;;;;4995830;28;20242;-79
2023/09/08 03:06:09;;;;;;;15.00;13.90;;;13.80;99.90;;;;;;4996314;28;20201;-79
2023/09/08 03:08:38;;;;;;;15.77;14.60;;;13.80;99.90;;;;;;4996152;28;20577;-79
2023/09/08 03:11:05;;;;;;;15.67;14.47;;;13.80;99.90;;;;;;4996292;28;20255;-79
2023/09/08 03:13:33;;;;;;;15.70;14.50;;;13.90;99.90;;;;;;4995171;28;20698;-79
2023/09/08 03:16:05;;;;;;;15.60;14.40;;;13.90;99.90;;;;;;5011806;28;20209;-82
2023/09/08 03:18:32;;;;;;;16.70;15.30;;;13.90;99.90;;;;;;4990800;28;20237;-77
2023/09/08 03:21:00;;;;;;;14.77;13.67;;;13.90;99.90;;;;;;4987698;28;20217;-77
2023/09/08 03:23:27;;;;;;;15.83;14.63;;;13.90;99.90;;;;;;4985192;28;20227;-78
2023/09/08 03:25:55;;;;;;;15.43;14.33;;;13.90;99.90;;;;;;4989732;28;20694;-78
2023/09/08 03:28:22;;;;;;;15.33;14.13;;;13.90;99.90;;;;;;4991684;28;20202;-77
2023/09/08 03:30:49;;;;;;;14.90;13.80;;;13.90;99.90;;;;;;4988703;28;20209;-79
2023/09/08 03:33:16;;;;;;;14.50;13.50;;;13.80;99.90;;;;;;4990830;28;20258;-76
2023/09/08 03:35:42;;;;;;;14.43;13.33;;;13.90;99.90;;;;;;4988068;28;20672;-79
2023/09/08 03:38:09;;;;;;;14.40;13.30;;;13.80;99.90;;;;;;4996774;28;20194;-76
2023/09/08 03:40:37;;;;;;;14.60;13.60;;;13.80;99.90;;;;;;4991842;28;20692;-77
2023/09/08 03:43:06;;;;;;;15.57;14.37;;;13.80;99.90;;;;;;4981420;28;20215;-77
2023/09/08 03:45:32;;;;;;;14.80;13.70;;;13.80;99.90;;;;;;4989469;28;20206;-76
2023/09/08 03:47:59;;;;;;;15.90;14.70;;;13.80;99.90;;;;;;4980822;28;20664;-76
2023/09/08 03:50:27;;;;;;;15.90;14.70;;;13.80;99.90;;;;;;4989086;28;20202;-77
2023/09/08 03:52:54;;;;;;;15.73;14.53;;;13.80;99.90;;;;;;4984577;28;20199;-76
2023/09/08 03:55:20;;;;;;;15.77;14.57;;;13.80;99.90;;;;;;4984759;28;20276;-76
2023/09/08 03:57:47;;;;;;;15.57;14.27;;;13.80;99.90;;;;;;4986560;28;20195;-76
2023/09/08 04:00:21;;;;;;;15.77;14.57;;;13.80;99.90;;;;;;4982012;28;20207;-76
2023/09/08 04:02:49;;;;;;;16.53;15.23;;;13.80;99.90;;;;;;5003886;28;20210;-77
2023/09/08 04:05:16;;;;;;;15.20;14.10;;;13.70;99.90;;;;;;4991697;28;20351;-77
2023/09/08 04:07:44;;;;;;;15.63;14.40;;;13.70;99.90;;;;;;4982986;28;20202;-77
2023/09/08 04:10:10;;;;;;;15.70;14.30;;;13.60;99.90;;;;;;4990352;28;20264;-77
2023/09/08 04:12:37;;;;;;;16.03;14.80;;;13.60;99.90;;;;;;4986373;28;20592;-76
2023/09/08 04:15:05;;;;;;;15.43;14.23;;;13.60;99.90;;;;;;4987817;28;20583;-77
2023/09/08 04:17:33;;;;;;;15.33;14.13;;;13.50;99.90;;;;;;4987380;28;20206;-76
2023/09/08 04:20:00;;;;;;;16.13;14.93;;;13.50;99.90;;;;;;4990257;28;20198;-77
2023/09/08 04:22:27;;;;;;;16.43;15.13;;;13.50;99.90;;;;;;4992825;28;20224;-77
2023/09/08 04:24:55;;;;;;;15.87;14.67;;;13.50;99.90;;;;;;4989371;28;20288;-76
2023/09/08 04:27:22;;;;;;;15.40;14.30;;;13.50;99.90;;;;;;4982371;28;20320;-77
2023/09/08 04:29:48;;;;;;;14.97;13.87;;;13.50;99.90;;;;;;4992362;28;20193;-76
2023/09/08 04:32:15;;;;;;;18.03;16.53;;;13.50;99.90;;;;;;4986843;28;20206;-76
2023/09/08 04:34:44;;;;;;;16.70;15.47;;;13.50;99.90;;;;;;4986423;28;20209;-77
2023/09/08 04:37:11;;;;;;;17.90;16.57;;;13.40;99.90;;;;;;4989278;28;20206;-77
2023/09/08 04:39:37;;;;;;;16.70;15.40;;;13.40;99.90;;;;;;4980004;28;20209;-77
2023/09/08 04:42:06;;;;;;;17.23;15.90;;;13.30;99.90;;;;;;4989380;28;20566;-77
2023/09/08 04:44:34;;;;;;;16.60;15.40;;;13.30;99.90;;;;;;4990656;28;20225;-76
2023/09/08 04:47:00;;;;;;;18.23;16.83;;;13.30;99.90;;;;;;4988790;28;20197;-77
2023/09/08 04:49:28;;;;;;;16.83;15.60;;;13.30;99.90;;;;;;4986407;28;20636;-77
2023/09/08 04:51:57;;;;;;;17.60;16.30;;;13.30;99.90;;;;;;4986466;28;20627;-76
2023/09/08 04:54:27;;;;;;;17.97;16.57;;;13.30;99.90;;;;;;4986155;28;20692;-76
2023/09/08 04:56:55;;;;;;;17.57;16.17;;;13.20;99.90;;;;;;4990707;28;20248;-76
2023/09/08 04:59:22;;;;;;;17.20;15.90;;;13.20;99.90;;;;;;4982517;28;20191;-77
2023/09/08 05:01:51;;;;;;;17.13;15.83;;;13.20;99.90;;;;;;4998458;28;20727;-76
2023/09/08 05:04:18;;;;;;;16.80;15.60;;;13.20;99.90;;;;;;4991455;28;20225;-76
2023/09/08 05:06:46;;;;;;;17.20;15.90;;;13.20;99.90;;;;;;4985852;28;20201;-77
2023/09/08 05:09:15;;;;;;;17.43;16.13;;;13.30;99.90;;;;;;4994254;28;20554;-76
2023/09/08 05:11:42;;;;;;;16.83;15.63;;;13.40;99.90;;;;;;4986210;28;20232;-77
2023/09/08 05:14:09;;;;;;;17.20;15.90;;;13.40;99.90;;;;;;4990194;28;20213;-76
2023/09/08 05:16:45;;;;;;;16.70;15.33;;;13.40;99.90;;;;;;4986119;28;20567;-77
2023/09/08 05:19:14;;;;;;;17.30;15.90;;;13.40;99.90;;;;;;4986554;28;20196;-77
2023/09/08 05:21:41;;;;;;;18.07;16.57;;;13.40;99.90;;;;;;4986390;28;20577;-76
2023/09/08 05:24:09;;;;;;;17.30;16.00;;;13.40;99.90;;;;;;4987955;28;20226;-76
2023/09/08 05:26:39;;;;;;;16.47;15.17;;;13.50;99.90;;;;;;4990436;28;20280;-77
2023/09/08 05:29:06;;;;;;;16.40;15.10;;;13.50;99.90;;;;;;4986267;28;20272;-77
2023/09/08 05:31:33;;;;;;;16.43;15.13;;;13.50;99.90;;;;;;4994653;28;20580;-76
2023/09/08 05:34:00;;;;;;;15.00;13.80;;;13.60;99.90;;;;;;4978831;28;20719;-78
2023/09/08 05:36:29;;;;;;;13.97;12.87;;;13.60;99.90;;;;;;4985028;28;20267;-78
2023/09/08 05:38:56;;;;;;;14.80;13.70;;;13.80;99.90;;;;;;4987727;28;20281;-80
2023/09/08 05:41:23;;;;;;;14.63;13.53;;;13.90;99.90;;;;;;4984211;28;20631;-79
2023/09/08 05:43:52;;;;;;;14.33;13.23;;;14.10;99.90;;;;;;4982647;28;20233;-79
2023/09/08 05:46:19;;;;;;;14.23;13.23;;;14.30;99.90;;;;;;4981856;28;20213;-79
2023/09/08 05:48:47;;;;;;;14.30;13.20;;;14.50;99.90;;;;;;4983006;28;20201;-79
2023/09/08 05:51:15;;;;;;;14.77;13.73;;;14.60;99.90;;;;;;4987626;28;20193;-79
2023/09/08 05:53:42;;;;;;;13.53;12.53;;;14.80;99.90;;;;;;4990500;28;20283;-78
2023/09/08 05:56:09;;;;;;;12.60;11.63;;;14.90;99.90;;;;;;4984336;28;20227;-79
2023/09/08 05:58:37;;;;;;;14.23;13.23;;;15.00;99.90;;;;;;4998916;28;20202;-79
2023/09/08 06:01:07;;;;;;;14.60;13.53;;;15.10;99.90;;;;;;4983363;28;20196;-80
2023/09/08 06:03:34;;;;;;;15.37;14.23;;;15.20;99.90;;;;;;4989419;28;20278;-79
2023/09/08 06:06:02;;;;;;;14.73;13.63;;;15.20;99.90;;;;;;4993154;28;20207;-79
2023/09/08 06:08:29;;;;;;;15.73;14.53;;;15.40;99.90;;;;;;4990681;28;20705;-80
2023/09/08 06:10:56;;;;;;;15.43;14.27;;;15.50;99.90;;;;;;5005892;28;20209;-78
2023/09/08 06:13:24;;;;;;;14.87;13.83;;;15.60;99.90;;;;;;4991144;28;20304;-79
2023/09/08 06:15:52;;;;;;;15.63;14.43;;;15.70;99.90;;;;;;4984988;28;20212;-79
2023/09/08 06:18:20;;;;;;;14.67;13.57;;;15.80;99.90;;;;;;4980179;28;20365;-79
2023/09/08 06:20:48;;;;;;;11.93;11.03;;;15.90;99.90;;;;;;4988762;28;20634;-79
2023/09/08 06:23:16;;;;;;;7.93;7.20;;;16.00;99.90;;;;;;4985896;28;20262;-79
2023/09/08 06:25:43;;;;;;;8.30;7.50;;;16.10;99.90;;;;;;4991625;28;20201;-78
2023/09/08 06:28:10;;;;;;;7.57;6.87;;;16.20;99.90;;;;;;4989456;28;20203;-79
2023/09/08 06:30:41;;;;;;;8.10;7.40;;;16.30;99.90;;;;;;4984689;28;20596;-78
2023/09/08 06:33:09;;;;;;;9.17;8.37;;;16.40;99.90;;;;;;4988231;28;20201;-79
2023/09/08 06:35:39;;;;;;;9.67;8.87;;;16.50;99.90;;;;;;4984405;28;20209;-79
2023/09/08 06:38:06;;;;;;;9.37;8.47;;;16.60;99.90;;;;;;4979748;28;20197;-79
2023/09/08 06:40:33;;;;;;;8.47;7.77;;;16.70;99.90;;;;;;4988968;28;20201;-78
2023/09/08 06:43:00;;;;;;;8.10;7.40;;;16.80;99.90;;;;;;4986102;28;20687;-79
2023/09/08 06:45:39;;;;;;;7.80;7.10;;;16.90;99.90;;;;;;4990074;28;20580;-79
2023/09/08 06:48:06;;;;;;;6.87;6.27;;;17.00;99.90;;;;;;4985307;28;20205;-79
2023/09/08 06:50:33;;;;;;;6.90;6.23;;;17.10;99.90;;;;;;5021867;28;20252;-80
2023/09/08 06:53:01;;;;;;;10.87;9.97;;;17.20;99.90;;;;;;4986349;28;20292;-79
2023/09/08 06:55:29;;;;;;;6.90;6.23;;;17.30;99.90;;;;;;4988450;28;20639;-80
2023/09/08 06:57:56;;;;;;;8.00;7.20;;;17.40;99.90;;;;;;4985876;28;20189;-77
2023/09/08 07:00:23;;;;;;;12.23;11.33;;;17.50;99.90;;;;;;4989253;28;20198;-78
2023/09/08 07:02:50;;;;;;;13.00;12.10;;;17.70;99.90;;;;;;4985929;28;20205;-77
2023/09/08 07:05:17;;;;;;;13.47;12.37;;;17.80;99.90;;;;;;4985850;28;20717;-78
2023/09/08 07:07:44;;;;;;;13.63;12.63;;;17.90;99.90;;;;;;4990840;28;20191;-77
2023/09/08 07:10:14;;;;;;;14.33;13.33;;;18.00;99.90;;;;;;4986137;28;20236;-77
2023/09/08 07:12:40;;;;;;;14.53;13.43;;;18.20;99.90;;;;;;4984851;28;20261;-76
2023/09/08 07:15:09;;;;;;;13.80;12.80;;;18.40;99.90;;;;;;4987939;28;20257;-77
2023/09/08 07:17:36;;;;;;;15.23;14.13;;;18.80;99.90;;;;;;4991317;28;20628;-78
2023/09/08 07:20:05;;;;;;;10.83;9.80;;;19.30;99.90;;;;;;4993238;28;20618;-78
2023/09/08 07:22:32;;;;;;;14.40;13.30;;;19.70;99.90;;;;;;4985991;28;20205;-78
2023/09/08 07:24:59;;;;;;;14.07;13.03;;;20.10;99.90;;;;;;4989500;28;20300;-78
2023/09/08 07:27:27;;;;;;;13.70;12.70;;;20.60;99.90;;;;;;4985867;28;20240;-77
2023/09/08 07:29:55;;;;;;;10.57;9.60;;;21.00;99.90;;;;;;4988745;28;20284;-77
2023/09/08 07:32:24;;;;;;;13.57;12.37;;;21.60;99.90;;;;;;4984971;28;20213;-78
2023/09/08 07:34:54;;;;;;;12.00;11.00;;;22.00;99.90;;;;;;4993600;28;20255;-78
2023/09/08 07:37:22;;;;;;;11.27;10.20;;;22.40;99.90;;;;;;4991537;28;20428;-78
2023/09/08 07:39:50;;;;;;;8.20;7.40;;;22.80;99.90;;;;;;4988683;28;20208;-78
2023/09/08 07:42:17;;;;;;;10.47;9.67;;;23.30;99.90;;;;;;4987438;28;20202;-78
2023/09/08 07:44:45;;;;;;;10.97;9.97;;;23.70;99.90;;;;;;4989471;28;20221;-79
2023/09/08 07:47:12;;;;;;;9.73;8.83;;;24.00;99.90;;;;;;5091901;23;20196;-78
2023/09/08 07:49:39;;;;;;;12.30;11.30;;;24.20;99.90;;;;;;5016677;28;20216;-78
2023/09/08 07:52:07;;;;;;;11.00;10.10;;;24.40;99.90;;;;;;5013624;28;20247;-77
2023/09/08 07:54:34;;;;;;;9.30;7.23;;;24.80;99.90;;;;;;5012499;28;20543;-76
2023/09/08 07:57:00;;;;;;;7.20;6.50;;;25.00;99.90;;;;;;5010718;28;20205;-76
2023/09/08 07:59:27;;;;;;;8.07;6.40;;;25.40;99.90;;;;;;5001051;28;20193;-78
2023/09/08 08:01:55;;;;;;;7.73;7.03;;;25.70;99.90;;;;;;5002368;28;20201;-77
2023/09/08 08:04:22;;;;;;;9.00;6.40;;;25.60;99.90;;;;;;5000855;28;20223;-77
2023/09/08 08:06:49;;;;;;;8.23;6.10;;;25.80;99.90;;;;;;4998519;28;20209;-79
2023/09/08 08:09:16;;;;;;;10.63;9.73;;;26.20;99.90;;;;;;4995818;28;20279;-77
2023/09/08 08:11:43;;;;;;;11.37;10.37;;;26.10;99.90;;;;;;5003073;28;20204;-78
2023/09/08 08:14:09;;;;;;;7.67;6.07;;;26.30;99.90;;;;;;5006882;28;20656;-77
2023/09/08 08:16:36;;;;;;;8.53;7.70;;;26.30;99.90;;;;;;5001330;28;20201;-76
2023/09/08 08:19:04;;;;;;;6.60;5.90;;;26.50;99.90;;;;;;5000334;28;20253;-79
2023/09/08 08:21:31;;;;;;;9.50;8.63;;;26.60;99.90;;;;;;5000079;28;20204;-78
2023/09/08 08:23:58;;;;;;;10.33;9.57;;;26.70;99.90;;;;;;4997254;28;20255;-77
2023/09/08 08:26:28;;;;;;;12.13;11.03;;;26.80;99.90;;;;;;5001535;28;20247;-77
2023/09/08 08:28:55;;;;;;;9.17;5.90;;;26.90;99.90;;;;;;5004599;28;20220;-78
2023/09/08 08:31:21;;;;;;;10.80;9.97;;;27.10;99.90;;;;;;5000765;28;20228;-77
2023/09/08 08:33:49;;;;;;;10.37;9.27;;;27.30;99.90;;;;;;5001629;28;20208;-78
2023/09/08 08:36:17;;;;;;;11.50;10.50;;;27.20;99.90;;;;;;4997553;28;20205;-78
2023/09/08 08:38:44;;;;;;;11.00;10.10;;;27.30;99.90;;;;;;4998776;28;20225;-77
2023/09/08 08:41:11;;;;;;;10.53;9.43;;;27.30;99.90;;;;;;5001975;28;20205;-77
2023/09/08 08:43:38;;;;;;;10.13;9.13;;;27.40;99.90;;;;;;5003474;28;20205;-77
2023/09/08 08:46:06;;;;;;;10.77;9.67;;;27.50;99.90;;;;;;5000801;28;20236;-78
2023/09/08 08:48:34;;;;;;;10.97;9.47;;;27.60;99.90;;;;;;5006318;28;20228;-77
2023/09/08 08:51:02;;;;;;;10.60;9.73;;;27.70;99.90;;;;;;5003874;28;20204;-77
2023/09/08 08:53:33;;;;;;;12.93;11.93;;;27.90;99.90;;;;;;4999649;28;20211;-78
2023/09/08 08:56:00;;;;;;;12.87;11.77;;;28.00;99.90;;;;;;4999534;28;20223;-79
2023/09/08 08:58:29;;;;;;;12.67;11.67;;;27.80;99.90;;;;;;5001778;28;20225;-81
2023/09/08 09:00:56;;;;;;;12.00;11.10;;;28.00;99.90;;;;;;4997194;28;20201;-81
2023/09/08 09:03:26;;;;;;;11.03;10.13;;;28.20;99.90;;;;;;5004042;28;20197;-82
2023/09/08 09:05:53;;;;;;;10.90;10.00;;;28.20;99.90;;;;;;5005265;28;20225;-77
2023/09/08 09:08:23;;;;;;;10.13;9.13;;;28.50;99.90;;;;;;5001797;28;20232;-82
2023/09/08 09:10:52;;;;;;;10.50;9.60;;;28.70;99.90;;;;;;4998225;28;20212;-84
2023/09/08 09:13:18;;;;;;;12.97;11.77;;;28.70;99.90;;;;;;5003401;28;20201;-78
2023/09/08 09:15:46;;;;;;;12.23;11.27;;;28.80;99.90;;;;;;5005930;28;20239;-78
2023/09/08 09:18:13;;;;;;;12.13;11.27;;;28.90;99.90;;;;;;4996313;28;20570;-77
2023/09/08 09:20:41;;;;;;;12.30;11.17;;;28.70;99.90;;;;;;4999843;28;20205;-79
2023/09/08 09:23:09;;;;;;;12.23;11.23;;;28.60;99.90;;;;;;5002492;28;20264;-79
2023/09/08 09:25:37;;;;;;;12.33;11.33;;;28.70;99.90;;;;;;5003908;28;20225;-79
2023/09/08 09:28:06;;;;;;;11.73;10.83;;;28.90;99.90;;;;;;5000741;28;20727;-79
2023/09/08 09:30:48;;;;;;;11.73;10.83;;;28.90;99.90;;;;;;5001305;28;20212;-78
2023/09/08 09:33:15;;;;;;;11.57;10.67;;;28.80;99.90;;;;;;5011820;28;20793;-78
2023/09/08 09:35:44;;;;;;;12.70;11.80;;;28.90;99.90;;;;;;5015731;28;20200;-78
2023/09/08 09:38:11;;;;;;;11.50;10.60;;;28.70;99.90;;;;;;5013816;28;20228;-79
2023/09/08 09:40:38;;;;;;;11.60;10.70;;;28.80;99.90;;;;;;5013956;28;20223;-78
2023/09/08 09:43:08;;;;;;;10.03;9.33;;;29.10;99.90;;;;;;5007853;28;20224;-79
2023/09/08 09:45:36;;;;;;;10.90;10.00;;;29.30;99.90;;;;;;5006204;28;20216;-78
2023/09/08 09:48:04;;;;;;;10.07;9.27;;;29.60;99.90;;;;;;5002347;28;20228;-78
2023/09/08 09:50:33;;;;;;;10.07;9.27;;;29.70;99.90;;;;;;4998901;28;20276;-79
2023/09/08 09:53:00;;;;;;;12.60;11.47;;;29.50;99.90;;;;;;5006974;28;20266;-78
2023/09/08 09:55:28;;;;;;;12.63;11.83;;;29.30;99.90;;;;;;5001978;28;20244;-78
2023/09/08 09:58:00;;;;;;;13.07;12.17;;;29.20;99.90;;;;;;5006677;28;20212;-78
2023/09/08 10:00:28;;;;;;;12.80;11.90;;;29.40;99.90;;;;;;5014425;28;20204;-78
2023/09/08 10:02:56;;;;;;;12.40;11.33;;;29.70;99.90;;;;;;4997784;28;20233;-77
2023/09/08 10:05:24;;;;;;;12.87;12.00;;;29.70;99.90;;;;;;5004061;28;20217;-77
2023/09/08 10:07:51;;;;;;;12.70;11.70;;;29.80;99.90;;;;;;4999737;28;20264;-78
2023/09/08 10:10:19;;;;;;;12.60;11.70;;;29.70;99.90;;;;;;5003159;28;20251;-78
2023/09/08 10:12:50;;;;;;;12.27;11.27;;;29.60;99.90;;;;;;5002064;28;20202;-77
2023/09/08 10:15:21;;;;;;;10.90;10.13;;;29.60;99.90;;;;;;5006749;28;20288;-78
2023/09/08 10:17:54;;;;;;;11.67;10.77;;;29.50;99.90;;;;;;5007868;28;20224;-78
2023/09/08 10:20:23;;;;;;;10.97;10.07;;;29.30;99.90;;;;;;4998314;28;20193;-78
2023/09/08 10:22:53;;;;;;;7.70;7.03;;;29.00;99.90;;;;;;5007140;28;20257;-78
2023/09/08 10:25:22;;;;;;;7.40;6.70;;;29.10;99.90;;;;;;5004309;28;20205;-78
2023/09/08 10:27:49;;;;;;;7.27;6.57;;;29.10;99.90;;;;;;5002454;28;20233;-78
2023/09/08 10:30:17;;;;;;;10.67;9.77;;;28.90;99.90;;;;;;5000174;28;20197;-78
2023/09/08 10:32:45;;;;;;;8.87;7.97;;;28.90;99.90;;;;;;5000692;28;20474;-77
2023/09/08 10:35:13;;;;;;;9.97;9.27;;;28.80;99.90;;;;;;5006984;28;20192;-79
2023/09/08 10:37:40;;;;;;;10.90;10.10;;;28.60;99.90;;;;;;5021535;28;20739;-80
2023/09/08 10:40:23;;;;;;;7.23;6.63;;;28.60;99.90;;;;;;5012276;28;20215;-80
2023/09/08 11:02:13;;;;;;;11.27;10.47;;;28.50;99.90;;;;;;5001323;28;20208;-81
2023/09/08 11:12:02;;;;;;;10.93;10.13;;;28.40;99.90;;;;;;4999290;28;20211;-80
2023/09/08 11:38:42;;;;;;;11.57;10.57;;;28.20;99.90;;;;;;5005500;28;20276;-80
2023/09/08 11:44:44;;;;;;;;;;;;;;;;;;;;;
2023/09/08 11:48:15;;;;;;;10.67;9.87;;;27.80;99.90;;;;;;5013001;28;20220;-80
2023/09/08 11:54:56;;;;;;;10.77;9.90;;;28.10;99.90;;;;;;4963565;28;20209;-81
2023/09/08 11:57:44;;;;;;;10.80;10.00;;;27.90;99.90;;;;;;5013841;28;20255;-81
2023/09/08 12:00:38;;;;;;;10.90;10.10;;;27.80;99.90;;;;;;5004960;28;20200;-80
2023/09/08 12:03:20;;;;;;;11.60;10.80;;;27.80;99.90;;;;;;5003334;28;20201;-81
2023/09/08 12:06:33;;;;;;;11.27;10.43;;;27.80;99.90;;;;;;5015189;28;20226;-81
2023/09/08 12:13:42;;;;;;;9.80;9.10;;;27.80;99.90;;;;;;4893114;29;20211;-80
2023/09/08 12:47:10;;;;;;;5.60;5.10;;;27.60;99.90;;;;;;5001910;28;20252;-77
2023/09/08 12:49:37;;;;;;;5.87;5.27;;;27.60;99.90;;;;;;4999510;28;20687;-78
2023/09/08 12:52:05;;;;;;;9.43;8.73;;;27.60;99.90;;;;;;5002188;28;20260;-77
2023/09/08 12:54:31;;;;;;;10.37;9.50;;;27.60;99.90;;;;;;5011203;28;20247;-77
2023/09/08 12:56:58;;;;;;;10.10;9.33;;;27.50;99.90;;;;;;5002635;28;20192;-77
2023/09/08 12:59:25;;;;;;;10.10;9.30;;;27.50;99.90;;;;;;4998612;28;20205;-77
2023/09/08 13:01:52;;;;;;;10.30;9.50;;;27.50;99.90;;;;;;5003435;28;20216;-78
2023/09/08 13:04:22;;;;;;;10.17;9.40;;;27.50;99.90;;;;;;5011284;28;20671;-79
2023/09/08 13:06:49;;;;;;;5.80;5.20;;;27.50;99.90;;;;;;5006608;28;20221;-82
2023/09/08 13:09:16;;;;;;;6.50;5.90;;;27.50;99.90;;;;;;5010485;28;20220;-81
2023/09/08 13:11:51;;;;;;;6.13;5.50;;;27.40;99.90;;;;;;5007283;28;20250;-81
2023/09/08 13:14:25;;;;;;;6.57;5.43;;;27.30;99.90;;;;;;5013737;28;20192;-81
2023/09/08 13:16:52;;;;;;;5.97;5.37;;;27.40;99.90;;;;;;5015919;28;20280;-81
2023/09/08 13:19:20;;;;;;;6.20;5.60;;;27.40;99.90;;;;;;5015325;28;20556;-82
2023/09/08 13:21:47;;;;;;;6.67;5.80;;;27.30;99.90;;;;;;5013344;28;20201;-81
2023/09/08 13:24:14;;;;;;;6.43;5.80;;;27.30;99.90;;;;;;5011820;28;20196;-81
2023/09/08 13:26:40;;;;;;;7.10;6.50;;;27.30;99.90;;;;;;5015958;28;20275;-81
2023/09/08 13:29:07;;;;;;;8.00;7.33;;;27.40;99.90;;;;;;5014399;28;20216;-80
2023/09/08 13:31:34;;;;;;;7.60;6.90;;;27.50;99.90;;;;;;5014249;28;20254;-80
2023/09/08 13:34:01;;;;;;;7.90;7.20;;;27.40;99.90;;;;;;5014445;28;20263;-80
2023/09/08 13:36:29;;;;;;;7.93;7.23;;;27.30;99.90;;;;;;5015391;28;20196;-78
2023/09/08 13:38:56;;;;;;;9.90;9.10;;;27.30;99.90;;;;;;5013141;28;20632;-79
2023/09/08 13:41:23;;;;;;;10.10;9.40;;;27.40;99.90;;;;;;5012247;28;20200;-79
2023/09/08 13:43:49;;;;;;;10.40;9.60;;;27.40;99.90;;;;;;5012436;28;20204;-83
2023/09/08 13:46:16;;;;;;;9.97;9.17;;;27.50;99.90;;;;;;5014651;28;20220;-79
2023/09/08 13:48:43;;;;;;;10.00;9.30;;;27.50;99.90;;;;;;5008860;28;20221;-83
2023/09/08 13:51:10;;;;;;;10.07;9.37;;;27.50;99.90;;;;;;5006924;28;20244;-78
2023/09/08 13:53:38;;;;;;;9.83;9.10;;;27.50;99.90;;;;;;5011274;28;20205;-82
2023/09/08 13:56:05;;;;;;;10.30;9.50;;;27.40;99.90;;;;;;5014271;28;20663;-81
2023/09/08 13:58:32;;;;;;;10.43;9.53;;;27.40;99.90;;;;;;5013987;28;20226;-81
2023/09/08 14:00:59;;;;;;;10.70;9.70;;;27.40;99.90;;;;;;5014149;28;20798;-81
2023/09/08 14:03:26;;;;;;;10.17;9.37;;;27.50;99.90;;;;;;5017095;28;20192;-79
2023/09/08 14:05:52;;;;;;;10.00;9.20;;;27.50;99.90;;;;;;5015235;28;20213;-79
2023/09/08 14:08:19;;;;;;;10.37;9.37;;;27.50;99.90;;;;;;5008433;28;20646;-80
2023/09/08 14:10:47;;;;;;;9.87;9.07;;;27.50;99.90;;;;;;5014972;28;20204;-79
2023/09/08 14:13:14;;;;;;;10.37;9.57;;;27.50;99.90;;;;;;5011018;28;20246;-78